sensor_id;sensor_type;location;lat;lon;timestamp;P1;durP1;ratioP1;P2;durP2;ratioP2
24151;SDS011;12311;50.866;4.332;2023-04-24T04:53:09;4.25;;;2.00;;
24151;SDS011;12311;50.866;4.332;2023-04-24T04:55:35;6.88;;;2.25;;
24151;SDS011;12311;50.866;4.332;2023-04-24T04:58:01;8.55;;;2.78;;
24151;SDS011;12311;50.866;4.332;2023-04-24T05:00:27;7.75;;;2.90;;
24151;SDS011;12311;50.866;4.332;2023-04-24T05:02:58;6.47;;;2.60;;
24151;SDS011;12311;50.866;4.332;2023-04-24T05:05:24;7.70;;;2.60;;
24151;SDS011;12311;50.866;4.332;2023-04-24T05:07:50;5.18;;;2.85;;
24151;SDS011;12311;50.866;4.332;2023-04-24T05:10:16;9.90;;;3.58;;
24151;SDS011;12311;50.866;4.332;2023-04-24T05:12:41;5.60;;;3.10;;
24151;SDS011;12311;50.866;4.332;2023-04-24T05:15:07;4.45;;;2.80;;
24151;SDS011;12311;50.866;4.332;2023-04-24T05:17:33;4.68;;;3.10;;
24151;SDS011;12311;50.866;4.332;2023-04-24T05:19:59;8.80;;;3.47;;
24151;SDS011;12311;50.866;4.332;2023-04-24T05:22:25;16.17;;;3.42;;
24151;SDS011;12311;50.866;4.332;2023-04-24T05:24:52;11.45;;;3.45;;
24151;SDS011;12311;50.866;4.332;2023-04-24T05:27:18;5.55;;;3.50;;
24151;SDS011;12311;50.866;4.332;2023-04-24T05:29:44;12.52;;;3.30;;
24151;SDS011;12311;50.866;4.332;2023-04-24T05:32:10;6.15;;;2.83;;
24151;SDS011;12311;50.866;4.332;2023-04-24T05:34:36;5.15;;;3.58;;
24151;SDS011;12311;50.866;4.332;2023-04-24T05:37:01;6.53;;;3.20;;
24151;SDS011;12311;50.866;4.332;2023-04-24T05:39:27;8.30;;;3.13;;
24151;SDS011;12311;50.866;4.332;2023-04-24T05:41:54;9.13;;;4.68;;
24151;SDS011;12311;50.866;4.332;2023-04-24T05:44:22;7.32;;;2.88;;
24151;SDS011;12311;50.866;4.332;2023-04-24T05:46:48;9.10;;;3.65;;
24151;SDS011;12311;50.866;4.332;2023-04-24T05:49:14;6.68;;;3.53;;
24151;SDS011;12311;50.866;4.332;2023-04-24T05:51:39;8.00;;;3.15;;
24151;SDS011;12311;50.866;4.332;2023-04-24T05:54:06;10.27;;;3.35;;
24151;SDS011;12311;50.866;4.332;2023-04-24T05:56:32;5.55;;;3.22;;
24151;SDS011;12311;50.866;4.332;2023-04-24T05:58:58;7.57;;;3.10;;
24151;SDS011;12311;50.866;4.332;2023-04-24T06:01:23;11.45;;;3.45;;
24151;SDS011;12311;50.866;4.332;2023-04-24T06:03:50;6.38;;;3.08;;
24151;SDS011;12311;50.866;4.332;2023-04-24T06:06:15;7.07;;;3.60;;
24151;SDS011;12311;50.866;4.332;2023-04-24T06:08:41;7.10;;;3.22;;
24151;SDS011;12311;50.866;4.332;2023-04-24T06:11:09;7.68;;;3.35;;
24151;SDS011;12311;50.866;4.332;2023-04-24T06:13:35;8.00;;;2.78;;
24151;SDS011;12311;50.866;4.332;2023-04-24T06:16:00;7.20;;;3.47;;
24151;SDS011;12311;50.866;4.332;2023-04-24T06:18:26;6.15;;;3.17;;
24151;SDS011;12311;50.866;4.332;2023-04-24T06:20:52;8.75;;;2.95;;
24151;SDS011;12311;50.866;4.332;2023-04-24T06:23:17;7.07;;;2.67;;
24151;SDS011;12311;50.866;4.332;2023-04-24T06:25:43;9.15;;;4.68;;
24151;SDS011;12311;50.866;4.332;2023-04-24T06:28:09;6.00;;;3.03;;
24151;SDS011;12311;50.866;4.332;2023-04-24T06:30:34;6.22;;;3.60;;
24151;SDS011;12311;50.866;4.332;2023-04-24T06:33:00;13.15;;;3.83;;
24151;SDS011;12311;50.866;4.332;2023-04-24T06:35:26;9.00;;;3.83;;
24151;SDS011;12311;50.866;4.332;2023-04-24T06:37:51;11.02;;;4.07;;
24151;SDS011;12311;50.866;4.332;2023-04-24T06:40:17;10.48;;;4.07;;
24151;SDS011;12311;50.866;4.332;2023-04-24T06:42:45;11.57;;;4.20;;
24151;SDS011;12311;50.866;4.332;2023-04-24T06:45:11;11.88;;;4.15;;
24151;SDS011;12311;50.866;4.332;2023-04-24T06:47:37;9.38;;;4.03;;
24151;SDS011;12311;50.866;4.332;2023-04-24T06:50:03;14.18;;;4.60;;
24151;SDS011;12311;50.866;4.332;2023-04-24T06:52:29;8.20;;;3.70;;
24151;SDS011;12311;50.866;4.332;2023-04-24T06:55:01;11.88;;;4.07;;
24151;SDS011;12311;50.866;4.332;2023-04-24T06:57:28;13.75;;;4.63;;
24151;SDS011;12311;50.866;4.332;2023-04-24T06:59:53;10.73;;;4.03;;
24151;SDS011;12311;50.866;4.332;2023-04-24T07:02:19;21.35;;;5.22;;
24151;SDS011;12311;50.866;4.332;2023-04-24T07:04:45;10.13;;;5.10;;
24151;SDS011;12311;50.866;4.332;2023-04-24T07:07:12;13.60;;;5.43;;
24151;SDS011;12311;50.866;4.332;2023-04-24T07:09:39;11.57;;;4.93;;
24151;SDS011;12311;50.866;4.332;2023-04-24T07:12:07;12.38;;;5.57;;
24151;SDS011;12311;50.866;4.332;2023-04-24T07:14:33;15.88;;;5.55;;
24151;SDS011;12311;50.866;4.332;2023-04-24T07:16:59;8.77;;;4.28;;
24151;SDS011;12311;50.866;4.332;2023-04-24T07:19:26;14.13;;;4.20;;
24151;SDS011;12311;50.866;4.332;2023-04-24T07:21:52;15.30;;;4.28;;
24151;SDS011;12311;50.866;4.332;2023-04-24T07:24:18;8.23;;;3.25;;
24151;SDS011;12311;50.866;4.332;2023-04-24T07:26:44;14.77;;;4.75;;
24151;SDS011;12311;50.866;4.332;2023-04-24T07:29:11;13.23;;;4.68;;
24151;SDS011;12311;50.866;4.332;2023-04-24T07:31:38;12.13;;;4.70;;
24151;SDS011;12311;50.866;4.332;2023-04-24T07:34:06;9.52;;;4.45;;
24151;SDS011;12311;50.866;4.332;2023-04-24T07:36:31;8.10;;;3.70;;
24151;SDS011;12311;50.866;4.332;2023-04-24T07:38:57;13.70;;;4.00;;
24151;SDS011;12311;50.866;4.332;2023-04-24T07:41:23;7.88;;;3.08;;
24151;SDS011;12311;50.866;4.332;2023-04-24T07:43:49;8.93;;;2.63;;
24151;SDS011;12311;50.866;4.332;2023-04-24T07:46:15;7.63;;;2.92;;
24151;SDS011;12311;50.866;4.332;2023-04-24T07:48:41;9.07;;;2.97;;
24151;SDS011;12311;50.866;4.332;2023-04-24T07:51:06;7.93;;;3.17;;
24151;SDS011;12311;50.866;4.332;2023-04-24T07:53:35;10.60;;;4.05;;
24151;SDS011;12311;50.866;4.332;2023-04-24T07:56:00;6.35;;;3.08;;
24151;SDS011;12311;50.866;4.332;2023-04-24T07:58:26;10.05;;;3.40;;
24151;SDS011;12311;50.866;4.332;2023-04-24T08:00:52;9.95;;;3.08;;
24151;SDS011;12311;50.866;4.332;2023-04-24T08:03:17;8.07;;;3.20;;
24151;SDS011;12311;50.866;4.332;2023-04-24T08:05:44;9.45;;;3.58;;
24151;SDS011;12311;50.866;4.332;2023-04-24T08:08:10;10.27;;;3.15;;
24151;SDS011;12311;50.866;4.332;2023-04-24T08:10:36;8.85;;;4.00;;
24151;SDS011;12311;50.866;4.332;2023-04-24T08:13:02;7.57;;;3.00;;
24151;SDS011;12311;50.866;4.332;2023-04-24T08:15:28;7.63;;;2.45;;
24151;SDS011;12311;50.866;4.332;2023-04-24T08:17:54;9.07;;;3.58;;
24151;SDS011;12311;50.866;4.332;2023-04-24T08:20:19;10.77;;;3.55;;
24151;SDS011;12311;50.866;4.332;2023-04-24T08:22:45;9.05;;;2.80;;
24151;SDS011;12311;50.866;4.332;2023-04-24T08:25:12;6.18;;;2.70;;
24151;SDS011;12311;50.866;4.332;2023-04-24T08:27:38;7.15;;;2.67;;
24151;SDS011;12311;50.866;4.332;2023-04-24T08:30:04;6.82;;;2.95;;
24151;SDS011;12311;50.866;4.332;2023-04-24T08:32:31;9.65;;;2.75;;
24151;SDS011;12311;50.866;4.332;2023-04-24T08:34:57;9.95;;;3.55;;
24151;SDS011;12311;50.866;4.332;2023-04-24T08:37:25;6.75;;;3.15;;
24151;SDS011;12311;50.866;4.332;2023-04-24T08:39:51;5.15;;;2.53;;
24151;SDS011;12311;50.866;4.332;2023-04-24T08:42:18;6.20;;;2.20;;
24151;SDS011;12311;50.866;4.332;2023-04-24T08:44:45;5.18;;;2.80;;
24151;SDS011;12311;50.866;4.332;2023-04-24T08:47:11;5.97;;;2.60;;
24151;SDS011;12311;50.866;4.332;2023-04-24T08:49:38;4.95;;;2.08;;
24151;SDS011;12311;50.866;4.332;2023-04-24T08:52:07;10.40;;;2.40;;
24151;SDS011;12311;50.866;4.332;2023-04-24T08:54:36;5.78;;;2.40;;
24151;SDS011;12311;50.866;4.332;2023-04-24T08:57:02;8.60;;;2.22;;
24151;SDS011;12311;50.866;4.332;2023-04-24T08:59:31;6.95;;;2.40;;
24151;SDS011;12311;50.866;4.332;2023-04-24T09:01:58;4.82;;;2.28;;
24151;SDS011;12311;50.866;4.332;2023-04-24T09:04:25;8.48;;;3.00;;
24151;SDS011;12311;50.866;4.332;2023-04-24T09:06:56;3.40;;;1.90;;
24151;SDS011;12311;50.866;4.332;2023-04-24T09:09:26;3.13;;;1.80;;
24151;SDS011;12311;50.866;4.332;2023-04-24T09:11:56;5.38;;;2.50;;
24151;SDS011;12311;50.866;4.332;2023-04-24T09:14:22;2.67;;;1.00;;
24151;SDS011;12311;50.866;4.332;2023-04-24T09:16:49;6.18;;;1.77;;
24151;SDS011;12311;50.866;4.332;2023-04-24T09:19:15;3.53;;;1.88;;
24151;SDS011;12311;50.866;4.332;2023-04-24T09:21:41;3.72;;;2.13;;
24151;SDS011;12311;50.866;4.332;2023-04-24T09:24:15;3.42;;;1.55;;
24151;SDS011;12311;50.866;4.332;2023-04-24T09:26:47;5.10;;;2.47;;
24151;SDS011;12311;50.866;4.332;2023-04-24T09:29:17;2.92;;;1.42;;
24151;SDS011;12311;50.866;4.332;2023-04-24T09:31:44;8.27;;;1.77;;
24151;SDS011;12311;50.866;4.332;2023-04-24T09:34:10;4.13;;;1.67;;
24151;SDS011;12311;50.866;4.332;2023-04-24T09:36:41;4.95;;;1.80;;
24151;SDS011;12311;50.866;4.332;2023-04-24T09:39:08;17.52;;;2.55;;
24151;SDS011;12311;50.866;4.332;2023-04-24T09:41:43;5.35;;;1.80;;
24151;SDS011;12311;50.866;4.332;2023-04-24T09:44:12;4.65;;;1.17;;
24151;SDS011;12311;50.866;4.332;2023-04-24T09:46:39;2.80;;;0.95;;
24151;SDS011;12311;50.866;4.332;2023-04-24T09:49:09;3.83;;;2.00;;
24151;SDS011;12311;50.866;4.332;2023-04-24T09:51:39;4.07;;;1.73;;
24151;SDS011;12311;50.866;4.332;2023-04-24T09:54:18;2.53;;;1.40;;
24151;SDS011;12311;50.866;4.332;2023-04-24T09:56:46;2.15;;;1.35;;
24151;SDS011;12311;50.866;4.332;2023-04-24T09:59:14;3.85;;;1.75;;
24151;SDS011;12311;50.866;4.332;2023-04-24T10:01:42;9.98;;;1.42;;
24151;SDS011;12311;50.866;4.332;2023-04-24T10:04:19;4.90;;;1.50;;
24151;SDS011;12311;50.866;4.332;2023-04-24T10:06:45;8.25;;;2.03;;
24151;SDS011;12311;50.866;4.332;2023-04-24T10:09:12;10.00;;;2.95;;
24151;SDS011;12311;50.866;4.332;2023-04-24T10:11:42;5.63;;;1.33;;
24151;SDS011;12311;50.866;4.332;2023-04-24T10:14:15;3.80;;;1.45;;
24151;SDS011;12311;50.866;4.332;2023-04-24T10:16:42;4.63;;;1.70;;
24151;SDS011;12311;50.866;4.332;2023-04-24T10:19:09;4.40;;;1.80;;
24151;SDS011;12311;50.866;4.332;2023-04-24T10:21:36;8.60;;;1.40;;
24151;SDS011;12311;50.866;4.332;2023-04-24T10:24:07;2.95;;;1.25;;
24151;SDS011;12311;50.866;4.332;2023-04-24T10:26:34;10.23;;;2.33;;
24151;SDS011;12311;50.866;4.332;2023-04-24T10:29:00;3.13;;;1.98;;
24151;SDS011;12311;50.866;4.332;2023-04-24T10:31:26;2.13;;;1.05;;
24151;SDS011;12311;50.866;4.332;2023-04-24T10:33:59;3.03;;;1.45;;
24151;SDS011;12311;50.866;4.332;2023-04-24T10:36:26;5.47;;;1.45;;
24151;SDS011;12311;50.866;4.332;2023-04-24T10:38:54;3.22;;;1.30;;
24151;SDS011;12311;50.866;4.332;2023-04-24T10:41:22;4.32;;;1.38;;
24151;SDS011;12311;50.866;4.332;2023-04-24T10:46:37;4.68;;;1.55;;
24151;SDS011;12311;50.866;4.332;2023-04-24T10:49:04;4.20;;;1.48;;
24151;SDS011;12311;50.866;4.332;2023-04-24T10:51:49;5.80;;;1.60;;
24151;SDS011;12311;50.866;4.332;2023-04-24T10:54:24;7.18;;;1.63;;
24151;SDS011;12311;50.866;4.332;2023-04-24T11:02:46;6.85;;;2.47;;
24151;SDS011;12311;50.866;4.332;2023-04-24T11:05:18;3.15;;;1.65;;
24151;SDS011;12311;50.866;4.332;2023-04-24T11:13:10;3.17;;;1.63;;
24151;SDS011;12311;50.866;4.332;2023-04-24T11:15:40;3.33;;;1.77;;
24151;SDS011;12311;50.866;4.332;2023-04-24T11:18:11;6.25;;;1.67;;
24151;SDS011;12311;50.866;4.332;2023-04-24T11:20:41;5.07;;;1.75;;
24151;SDS011;12311;50.866;4.332;2023-04-24T11:23:08;2.55;;;1.30;;
24151;SDS011;12311;50.866;4.332;2023-04-24T11:25:35;3.03;;;1.65;;
24151;SDS011;12311;50.866;4.332;2023-04-24T11:28:04;5.20;;;1.85;;
24151;SDS011;12311;50.866;4.332;2023-04-24T11:30:31;2.55;;;1.30;;
24151;SDS011;12311;50.866;4.332;2023-04-24T11:33:04;3.25;;;1.13;;
24151;SDS011;12311;50.866;4.332;2023-04-24T11:35:34;5.40;;;1.95;;
24151;SDS011;12311;50.866;4.332;2023-04-24T11:38:04;4.53;;;1.75;;
24151;SDS011;12311;50.866;4.332;2023-04-24T11:40:30;4.35;;;1.80;;
24151;SDS011;12311;50.866;4.332;2023-04-24T11:42:56;3.47;;;1.80;;
24151;SDS011;12311;50.866;4.332;2023-04-24T11:45:26;5.38;;;1.63;;
24151;SDS011;12311;50.866;4.332;2023-04-24T11:47:53;4.03;;;1.80;;
24151;SDS011;12311;50.866;4.332;2023-04-24T11:50:20;3.72;;;1.92;;
24151;SDS011;12311;50.866;4.332;2023-04-24T11:52:48;8.73;;;2.42;;
24151;SDS011;12311;50.866;4.332;2023-04-24T11:57:43;3.97;;;2.05;;
24151;SDS011;12311;50.866;4.332;2023-04-24T12:02:43;2.95;;;1.88;;
24151;SDS011;12311;50.866;4.332;2023-04-24T12:05:09;3.90;;;1.50;;
24151;SDS011;12311;50.866;4.332;2023-04-24T12:07:50;6.30;;;1.98;;
24151;SDS011;12311;50.866;4.332;2023-04-24T12:10:24;2.63;;;1.67;;
24151;SDS011;12311;50.866;4.332;2023-04-24T12:12:51;9.95;;;2.35;;
24151;SDS011;12311;50.866;4.332;2023-04-24T12:15:18;3.55;;;2.05;;
24151;SDS011;12311;50.866;4.332;2023-04-24T12:17:45;4.50;;;1.90;;
24151;SDS011;12311;50.866;4.332;2023-04-24T12:20:11;2.88;;;1.90;;
24151;SDS011;12311;50.866;4.332;2023-04-24T12:22:49;3.00;;;1.73;;
24151;SDS011;12311;50.866;4.332;2023-04-24T12:25:19;2.92;;;1.33;;
24151;SDS011;12311;50.866;4.332;2023-04-24T12:27:46;2.80;;;1.20;;
24151;SDS011;12311;50.866;4.332;2023-04-24T12:30:18;2.67;;;1.48;;
24151;SDS011;12311;50.866;4.332;2023-04-24T12:32:46;6.35;;;1.67;;
24151;SDS011;12311;50.866;4.332;2023-04-24T12:35:13;4.03;;;1.60;;
24151;SDS011;12311;50.866;4.332;2023-04-24T12:37:44;23.13;;;3.22;;
24151;SDS011;12311;50.866;4.332;2023-04-24T12:40:10;7.47;;;1.80;;
24151;SDS011;12311;50.866;4.332;2023-04-24T12:42:44;1.85;;;1.13;;
24151;SDS011;12311;50.866;4.332;2023-04-24T12:45:11;5.32;;;1.40;;
24151;SDS011;12311;50.866;4.332;2023-04-24T12:47:38;3.80;;;1.63;;
24151;SDS011;12311;50.866;4.332;2023-04-24T12:50:05;3.30;;;1.15;;
24151;SDS011;12311;50.866;4.332;2023-04-24T12:52:35;5.35;;;1.75;;
24151;SDS011;12311;50.866;4.332;2023-04-24T12:55:01;7.13;;;1.40;;
24151;SDS011;12311;50.866;4.332;2023-04-24T12:57:28;2.92;;;1.70;;
24151;SDS011;12311;50.866;4.332;2023-04-24T12:59:55;3.15;;;1.30;;
24151;SDS011;12311;50.866;4.332;2023-04-24T13:02:25;2.25;;;1.17;;
24151;SDS011;12311;50.866;4.332;2023-04-24T13:04:54;1.70;;;0.85;;
24151;SDS011;12311;50.866;4.332;2023-04-24T13:07:20;10.15;;;2.33;;
24151;SDS011;12311;50.866;4.332;2023-04-24T13:09:47;2.67;;;1.20;;
24151;SDS011;12311;50.866;4.332;2023-04-24T13:12:13;2.72;;;1.60;;
24151;SDS011;12311;50.866;4.332;2023-04-24T13:14:39;5.72;;;1.52;;
24151;SDS011;12311;50.866;4.332;2023-04-24T13:17:05;6.07;;;1.50;;
24151;SDS011;12311;50.866;4.332;2023-04-24T13:19:39;2.20;;;1.25;;
24151;SDS011;12311;50.866;4.332;2023-04-24T13:22:06;6.15;;;1.27;;
24151;SDS011;12311;50.866;4.332;2023-04-24T13:24:32;1.95;;;1.00;;
24151;SDS011;12311;50.866;4.332;2023-04-24T13:26:58;3.35;;;1.30;;
24151;SDS011;12311;50.866;4.332;2023-04-24T13:29:25;4.68;;;1.05;;
24151;SDS011;12311;50.866;4.332;2023-04-24T13:31:50;1.67;;;0.95;;
24151;SDS011;12311;50.866;4.332;2023-04-24T13:34:19;2.22;;;1.15;;
24151;SDS011;12311;50.866;4.332;2023-04-24T13:36:44;4.28;;;0.80;;
24151;SDS011;12311;50.866;4.332;2023-04-24T13:39:11;1.98;;;1.05;;
24151;SDS011;12311;50.866;4.332;2023-04-24T13:41:37;1.58;;;1.02;;
24151;SDS011;12311;50.866;4.332;2023-04-24T13:44:03;2.45;;;1.10;;
24151;SDS011;12311;50.866;4.332;2023-04-24T13:46:29;2.33;;;1.30;;
24151;SDS011;12311;50.866;4.332;2023-04-24T13:48:55;1.75;;;0.98;;
24151;SDS011;12311;50.866;4.332;2023-04-24T13:51:22;1.25;;;0.90;;
24151;SDS011;12311;50.866;4.332;2023-04-24T13:53:48;1.15;;;0.80;;
24151;SDS011;12311;50.866;4.332;2023-04-24T13:56:14;1.00;;;0.80;;
24151;SDS011;12311;50.866;4.332;2023-04-24T13:58:40;2.22;;;1.00;;
24151;SDS011;12311;50.866;4.332;2023-04-24T14:01:06;1.05;;;0.80;;
24151;SDS011;12311;50.866;4.332;2023-04-24T14:03:33;3.53;;;0.90;;
24151;SDS011;12311;50.866;4.332;2023-04-24T14:05:58;2.65;;;0.70;;
24151;SDS011;12311;50.866;4.332;2023-04-24T14:08:24;1.27;;;0.85;;
24151;SDS011;12311;50.866;4.332;2023-04-24T14:10:50;3.63;;;0.80;;
24151;SDS011;12311;50.866;4.332;2023-04-24T14:13:16;1.67;;;0.73;;
24151;SDS011;12311;50.866;4.332;2023-04-24T14:15:42;5.20;;;0.90;;
24151;SDS011;12311;50.866;4.332;2023-04-24T14:18:08;1.60;;;1.00;;
24151;SDS011;12311;50.866;4.332;2023-04-24T14:20:33;2.83;;;1.67;;
24151;SDS011;12311;50.866;4.332;2023-04-24T14:22:59;4.53;;;1.00;;
24151;SDS011;12311;50.866;4.332;2023-04-24T14:25:25;3.70;;;0.90;;
24151;SDS011;12311;50.866;4.332;2023-04-24T14:27:51;2.03;;;1.42;;
24151;SDS011;12311;50.866;4.332;2023-04-24T14:30:17;6.47;;;1.02;;
24151;SDS011;12311;50.866;4.332;2023-04-24T14:32:43;1.90;;;0.80;;
24151;SDS011;12311;50.866;4.332;2023-04-24T14:35:09;4.57;;;0.75;;
24151;SDS011;12311;50.866;4.332;2023-04-24T14:37:34;3.20;;;0.98;;
24151;SDS011;12311;50.866;4.332;2023-04-24T14:40:01;1.65;;;0.90;;
24151;SDS011;12311;50.866;4.332;2023-04-24T14:42:28;1.30;;;0.80;;
24151;SDS011;12311;50.866;4.332;2023-04-24T14:44:53;2.33;;;0.88;;
24151;SDS011;12311;50.866;4.332;2023-04-24T14:47:19;3.65;;;0.88;;
24151;SDS011;12311;50.866;4.332;2023-04-24T14:49:47;1.73;;;0.93;;
24151;SDS011;12311;50.866;4.332;2023-04-24T14:52:13;1.40;;;1.00;;
24151;SDS011;12311;50.866;4.332;2023-04-24T14:54:39;4.35;;;0.88;;
24151;SDS011;12311;50.866;4.332;2023-04-24T14:57:04;4.00;;;1.02;;
24151;SDS011;12311;50.866;4.332;2023-04-24T14:59:30;1.30;;;0.70;;
24151;SDS011;12311;50.866;4.332;2023-04-24T15:01:56;4.68;;;0.80;;
24151;SDS011;12311;50.866;4.332;2023-04-24T15:04:26;4.45;;;1.00;;
24151;SDS011;12311;50.866;4.332;2023-04-24T15:06:53;2.60;;;1.00;;
24151;SDS011;12311;50.866;4.332;2023-04-24T15:09:19;4.90;;;1.25;;
24151;SDS011;12311;50.866;4.332;2023-04-24T15:11:45;1.92;;;0.80;;
24151;SDS011;12311;50.866;4.332;2023-04-24T15:14:11;0.95;;;0.60;;
24151;SDS011;12311;50.866;4.332;2023-04-24T15:16:37;2.75;;;0.70;;
24151;SDS011;12311;50.866;4.332;2023-04-24T15:19:03;0.80;;;0.80;;
24151;SDS011;12311;50.866;4.332;2023-04-24T15:21:29;0.93;;;0.65;;
24151;SDS011;12311;50.866;4.332;2023-04-24T15:23:54;9.40;;;1.73;;
24151;SDS011;12311;50.866;4.332;2023-04-24T15:26:20;1.27;;;0.60;;
24151;SDS011;12311;50.866;4.332;2023-04-24T15:28:46;9.05;;;1.33;;
24151;SDS011;12311;50.866;4.332;2023-04-24T15:31:12;1.10;;;0.60;;
24151;SDS011;12311;50.866;4.332;2023-04-24T15:33:38;1.13;;;1.00;;
24151;SDS011;12311;50.866;4.332;2023-04-24T15:36:03;2.63;;;0.80;;
24151;SDS011;12311;50.866;4.332;2023-04-24T15:38:30;1.98;;;0.70;;
24151;SDS011;12311;50.866;4.332;2023-04-24T15:40:56;1.70;;;0.63;;
24151;SDS011;12311;50.866;4.332;2023-04-24T15:43:21;4.28;;;0.77;;
24151;SDS011;12311;50.866;4.332;2023-04-24T15:45:49;4.75;;;0.70;;
24151;SDS011;12311;50.866;4.332;2023-04-24T15:48:15;2.53;;;1.10;;
24151;SDS011;12311;50.866;4.332;2023-04-24T15:50:41;2.20;;;0.75;;
24151;SDS011;12311;50.866;4.332;2023-04-24T15:53:07;1.55;;;0.75;;
24151;SDS011;12311;50.866;4.332;2023-04-24T15:55:33;2.00;;;0.90;;
24151;SDS011;12311;50.866;4.332;2023-04-24T15:57:59;3.67;;;1.60;;
24151;SDS011;12311;50.866;4.332;2023-04-24T16:00:26;5.88;;;1.27;;
24151;SDS011;12311;50.866;4.332;2023-04-24T16:02:58;1.95;;;0.80;;
24151;SDS011;12311;50.866;4.332;2023-04-24T16:05:26;2.80;;;0.75;;
24151;SDS011;12311;50.866;4.332;2023-04-24T16:07:53;0.65;;;0.55;;
24151;SDS011;12311;50.866;4.332;2023-04-24T16:10:18;2.58;;;0.73;;
24151;SDS011;12311;50.866;4.332;2023-04-24T16:12:44;2.55;;;1.42;;
24151;SDS011;12311;50.866;4.332;2023-04-24T16:15:10;1.35;;;0.80;;
24151;SDS011;12311;50.866;4.332;2023-04-24T16:17:36;1.20;;;0.52;;
24151;SDS011;12311;50.866;4.332;2023-04-24T16:20:02;1.48;;;0.80;;
24151;SDS011;12311;50.866;4.332;2023-04-24T16:22:29;1.35;;;1.13;;
24151;SDS011;12311;50.866;4.332;2023-04-24T16:24:55;1.33;;;0.73;;
24151;SDS011;12311;50.866;4.332;2023-04-24T16:27:22;3.65;;;1.40;;
24151;SDS011;12311;50.866;4.332;2023-04-24T16:29:49;2.80;;;1.00;;
24151;SDS011;12311;50.866;4.332;2023-04-24T16:32:15;1.08;;;0.70;;
24151;SDS011;12311;50.866;4.332;2023-04-24T16:34:41;1.27;;;0.90;;
24151;SDS011;12311;50.866;4.332;2023-04-24T16:37:06;0.85;;;0.50;;
24151;SDS011;12311;50.866;4.332;2023-04-24T16:39:33;4.70;;;0.90;;
24151;SDS011;12311;50.866;4.332;2023-04-24T16:41:59;1.45;;;0.73;;
24151;SDS011;12311;50.866;4.332;2023-04-24T16:44:25;1.10;;;0.57;;
24151;SDS011;12311;50.866;4.332;2023-04-24T16:46:51;4.07;;;1.45;;
24151;SDS011;12311;50.866;4.332;2023-04-24T16:49:17;1.33;;;0.95;;
24151;SDS011;12311;50.866;4.332;2023-04-24T16:51:43;1.80;;;1.10;;
24151;SDS011;12311;50.866;4.332;2023-04-24T16:54:09;3.10;;;0.93;;
24151;SDS011;12311;50.866;4.332;2023-04-24T16:56:35;1.42;;;0.85;;
24151;SDS011;12311;50.866;4.332;2023-04-24T16:59:00;1.88;;;0.90;;
24151;SDS011;12311;50.866;4.332;2023-04-24T17:01:26;1.80;;;0.85;;
24151;SDS011;12311;50.866;4.332;2023-04-24T17:03:52;1.42;;;0.60;;
24151;SDS011;12311;50.866;4.332;2023-04-24T17:06:18;1.42;;;0.70;;
24151;SDS011;12311;50.866;4.332;2023-04-24T17:08:44;6.68;;;0.90;;
24151;SDS011;12311;50.866;4.332;2023-04-24T17:11:10;1.70;;;0.70;;
24151;SDS011;12311;50.866;4.332;2023-04-24T17:13:36;5.78;;;1.13;;
24151;SDS011;12311;50.866;4.332;2023-04-24T17:16:01;1.42;;;0.90;;
24151;SDS011;12311;50.866;4.332;2023-04-24T17:18:27;1.40;;;0.77;;
24151;SDS011;12311;50.866;4.332;2023-04-24T17:20:53;4.32;;;1.05;;
24151;SDS011;12311;50.866;4.332;2023-04-24T17:23:19;2.65;;;1.23;;
24151;SDS011;12311;50.866;4.332;2023-04-24T17:25:45;4.28;;;1.27;;
24151;SDS011;12311;50.866;4.332;2023-04-24T17:28:27;2.35;;;1.27;;
24151;SDS011;12311;50.866;4.332;2023-04-24T17:30:54;2.20;;;1.27;;
24151;SDS011;12311;50.866;4.332;2023-04-24T17:33:24;3.03;;;1.20;;
24151;SDS011;12311;50.866;4.332;2023-04-24T17:35:51;3.47;;;1.02;;
24151;SDS011;12311;50.866;4.332;2023-04-24T17:38:17;1.77;;;0.98;;
24151;SDS011;12311;50.866;4.332;2023-04-24T17:40:43;4.65;;;1.42;;
24151;SDS011;12311;50.866;4.332;2023-04-24T17:43:12;4.80;;;1.65;;
24151;SDS011;12311;50.866;4.332;2023-04-24T17:45:49;3.78;;;1.63;;
24151;SDS011;12311;50.866;4.332;2023-04-24T17:48:16;2.05;;;1.20;;
24151;SDS011;12311;50.866;4.332;2023-04-24T17:50:43;3.85;;;1.75;;
24151;SDS011;12311;50.866;4.332;2023-04-24T17:53:09;5.32;;;2.38;;
24151;SDS011;12311;50.866;4.332;2023-04-24T17:55:36;6.65;;;1.80;;
24151;SDS011;12311;50.866;4.332;2023-04-24T17:58:03;3.25;;;1.20;;
24151;SDS011;12311;50.866;4.332;2023-04-24T18:00:29;6.93;;;1.58;;
24151;SDS011;12311;50.866;4.332;2023-04-24T18:02:55;2.75;;;1.80;;
24151;SDS011;12311;50.866;4.332;2023-04-24T18:05:35;4.43;;;1.75;;
24151;SDS011;12311;50.866;4.332;2023-04-24T18:08:02;1.95;;;1.40;;
24151;SDS011;12311;50.866;4.332;2023-04-24T18:10:29;1.23;;;0.85;;
24151;SDS011;12311;50.866;4.332;2023-04-24T18:12:56;1.92;;;1.25;;
24151;SDS011;12311;50.866;4.332;2023-04-24T18:15:22;2.58;;;1.33;;
24151;SDS011;12311;50.866;4.332;2023-04-24T18:17:48;2.83;;;0.90;;
24151;SDS011;12311;50.866;4.332;2023-04-24T18:20:14;2.22;;;1.40;;
24151;SDS011;12311;50.866;4.332;2023-04-24T18:22:41;2.13;;;0.80;;
24151;SDS011;12311;50.866;4.332;2023-04-24T18:25:08;2.40;;;1.10;;
24151;SDS011;12311;50.866;4.332;2023-04-24T18:27:38;2.47;;;0.98;;
24151;SDS011;12311;50.866;4.332;2023-04-24T18:30:05;2.13;;;1.38;;
24151;SDS011;12311;50.866;4.332;2023-04-24T18:32:32;1.88;;;1.27;;
24151;SDS011;12311;50.866;4.332;2023-04-24T18:34:59;2.38;;;1.00;;
24151;SDS011;12311;50.866;4.332;2023-04-24T18:37:25;2.88;;;1.00;;
24151;SDS011;12311;50.866;4.332;2023-04-24T18:39:50;3.95;;;1.10;;
24151;SDS011;12311;50.866;4.332;2023-04-24T18:42:16;1.70;;;1.08;;
24151;SDS011;12311;50.866;4.332;2023-04-24T18:44:42;1.35;;;0.90;;
24151;SDS011;12311;50.866;4.332;2023-04-24T18:47:08;1.63;;;1.00;;
24151;SDS011;12311;50.866;4.332;2023-04-24T18:49:35;2.47;;;1.60;;
24151;SDS011;12311;50.866;4.332;2023-04-24T18:52:01;2.15;;;1.23;;
24151;SDS011;12311;50.866;4.332;2023-04-24T18:54:26;2.88;;;0.98;;
24151;SDS011;12311;50.866;4.332;2023-04-24T18:56:52;3.35;;;0.98;;
24151;SDS011;12311;50.866;4.332;2023-04-24T18:59:18;3.85;;;1.30;;
24151;SDS011;12311;50.866;4.332;2023-04-24T19:01:44;3.00;;;1.13;;
24151;SDS011;12311;50.866;4.332;2023-04-24T19:04:09;2.50;;;1.30;;
24151;SDS011;12311;50.866;4.332;2023-04-24T19:06:36;2.72;;;1.00;;
24151;SDS011;12311;50.866;4.332;2023-04-24T19:09:02;3.40;;;1.27;;
24151;SDS011;12311;50.866;4.332;2023-04-24T19:11:28;3.55;;;1.42;;
24151;SDS011;12311;50.866;4.332;2023-04-24T19:13:53;3.05;;;1.35;;
24151;SDS011;12311;50.866;4.332;2023-04-24T19:16:19;1.92;;;1.25;;
24151;SDS011;12311;50.866;4.332;2023-04-24T19:18:45;5.10;;;1.58;;
24151;SDS011;12311;50.866;4.332;2023-04-24T19:21:11;3.72;;;1.52;;
24151;SDS011;12311;50.866;4.332;2023-04-24T19:23:36;5.90;;;1.40;;
24151;SDS011;12311;50.866;4.332;2023-04-24T19:26:05;3.55;;;1.98;;
24151;SDS011;12311;50.866;4.332;2023-04-24T19:28:31;4.43;;;2.15;;
24151;SDS011;12311;50.866;4.332;2023-04-24T19:30:57;6.25;;;2.90;;
24151;SDS011;12311;50.866;4.332;2023-04-24T19:33:23;3.42;;;1.60;;
24151;SDS011;12311;50.866;4.332;2023-04-24T19:35:49;6.43;;;1.65;;
24151;SDS011;12311;50.866;4.332;2023-04-24T19:38:15;3.95;;;1.77;;
24151;SDS011;12311;50.866;4.332;2023-04-24T19:40:41;6.07;;;2.13;;
24151;SDS011;12311;50.866;4.332;2023-04-24T19:43:07;2.88;;;1.70;;
24151;SDS011;12311;50.866;4.332;2023-04-24T19:45:32;2.38;;;1.65;;
24151;SDS011;12311;50.866;4.332;2023-04-24T19:47:58;1.17;;;0.95;;
24151;SDS011;12311;50.866;4.332;2023-04-24T19:50:24;4.53;;;1.27;;
24151;SDS011;12311;50.866;4.332;2023-04-24T19:52:50;2.33;;;1.52;;
24151;SDS011;12311;50.866;4.332;2023-04-24T19:55:16;3.13;;;1.38;;